Flight Track Log - Related Links

Times and Time Zones

All times are in EDT time to prevent confusion due to time zone crossing. See the N8800G flight status page for this flight to view local times or setup timezone preferences in your user account.

Time Position Orientation Groundspeed Altitude Reporting Facility
EDT Latitude Longitude Course Direction KTS MPH feet Rate Location/Type
Sun 08:11:30 PM 39.0500 -84.6833 North 150 173 1,400  Level Cincinnati TRACON
Sun 08:12:12 PM 39.0500 -84.7167 270° West 162 186 2,500 1,706 Climbing Cincinnati TRACON
Sun 08:13:12 PM 39.0500 -84.8000 270° West 250 288 4,300 2,100 Climbing Cincinnati TRACON
Sun 08:14:00 PM 39.0841 -84.4000 North  Level FlightAware Approximate
Sun 08:14:12 PM 39.1000 -84.8500 322° Northwest 283 326 6,700  Level Cincinnati TRACON
Sun 08:15:00 PM 39.2068 -84.4000 North  Level FlightAware Approximate
Sun 08:15:17 PM 39.1664 -84.7889 36° Northeast 295 339 9,300  Level Indianapolis Center
Sun 08:16:00 PM 39.3295 -84.4000 North  Level FlightAware Approximate
Sun 08:16:19 PM 39.2369 -84.7275 34° Northeast 300 345 11,000  Level Indianapolis Center
Sun 08:17:20 PM 39.3094 -84.6553 38° Northeast 323 372 12,600 1,463 Climbing Indianapolis Center
Sun 08:18:22 PM 39.4025 -84.5611 38° Northeast 358 412 14,000 1,306 Climbing Indianapolis Center
Sun 08:19:24 PM 39.4833 -84.4781 38° Northeast 366 421 15,300 1,366 Climbing Indianapolis Center
Sun 08:20:25 PM 39.5653 -84.3933 39° Northeast 371 427 16,800 1,268 Climbing Indianapolis Center
Sun 08:21:27 PM 39.6483 -84.3089 38° Northeast 372 428 17,900 1,016 Climbing Indianapolis Center
Sun 08:22:29 PM 39.7331 -84.2211 39° Northeast 382 440 18,900 1,024 Climbing Indianapolis Center
Sun 08:23:30 PM 39.8200 -84.1314 38° Northeast 392 451 20,000 878 Climbing Indianapolis Center
Sun 08:24:32 PM 39.9039 -84.0297 43° Northeast 404 465 20,700 683 Climbing Indianapolis Center
Sun 08:25:33 PM 39.9892 -83.9250 43° Northeast 414 476 21,400 732 Climbing Indianapolis Center
Sun 08:26:35 PM 40.0758 -83.8164 44° Northeast 422 486 22,200 732 Climbing Indianapolis Center
Sun 08:27:36 PM 40.1631 -83.7064 44° Northeast 427 491 22,900 683 Climbing Indianapolis Center
Sun 08:28:38 PM 40.2519 -83.5947 44° Northeast 434 499 23,600 677 Climbing Indianapolis Center
Sun 08:29:40 PM 40.3414 -83.4828 44° Northeast 438 504 24,300 683 Climbing Indianapolis Center
Sun 08:30:41 PM 40.4294 -83.3675 45° Northeast 441 507 25,000 585 Climbing Indianapolis Center
Sun 08:31:43 PM 40.5197 -83.2522 44° Northeast 446 513 25,500 537 Climbing Indianapolis Center
Sun 08:32:44 PM 40.6194 -83.1278 43° Northeast 450 518 26,100 537 Climbing Indianapolis Center
Sun 08:33:46 PM 40.7108 -83.0083 45° Northeast 456 525 26,600 484 Climbing Indianapolis Center
Sun 08:34:48 PM 40.8044 -82.8883 44° Northeast 464 534 27,100 571 Climbing Indianapolis Center
Sun 08:35:31 PM 40.8817 -82.7856 45° Northeast 455 524 27,600 577 Climbing Cleveland Center
Sun 08:36:32 PM 40.9736 -82.6678 44° Northeast 455 524 28,100 450 Climbing Cleveland Center
Sun 08:37:31 PM 41.0569 -82.5575 45° Northeast 455 524 28,500 454 Climbing Cleveland Center
Sun 08:38:31 PM 41.1528 -82.4336 44° Northeast 462 532 29,000 250 Climbing Cleveland Center
Sun 08:39:31 PM 41.2464 -82.3092 45° Northeast 470 541 29,000 150 Level Cleveland Center
Sun 08:40:31 PM 41.3422 -82.1789 46° Northeast 482 555 29,300 450 Climbing Cleveland Center
Sun 08:41:31 PM 41.4072 -82.0006 64° Northeast 482 555 29,900 450 Climbing Cleveland Center
Sun 08:42:31 PM 41.4592 -81.8217 69° East 489 563 30,200 450 Climbing Cleveland Center
Sun 08:43:31 PM 41.5069 -81.6422 70° East 506 582 30,800 400 Climbing Cleveland Center
Sun 08:44:31 PM 41.5583 -81.4656 69° East 506 582 31,000 100 Climbing Cleveland Center
Sun 08:45:31 PM 41.6075 -81.2858 70° East 506 582 31,000  Level Cleveland Center
Sun 08:46:31 PM 41.6522 -81.1250 70° East 512 589 31,000  Level Cleveland Center
Sun 08:47:31 PM 41.7050 -80.9392 69° East 527 606 31,000  Level Cleveland Center
Sun 08:48:31 PM 41.7556 -80.7503 70° East 527 606 31,000  Level Cleveland Center
Sun 08:49:31 PM 41.7514 -80.5553 92° East 515 593 31,000  Level Cleveland Center
Sun 08:50:31 PM 41.7367 -80.3550 96° East 529 609 31,000  Level Cleveland Center
Sun 08:51:31 PM 41.7194 -80.1408 96° East 540 621 31,000  Level Cleveland Center
Sun 08:52:31 PM 41.7017 -79.9378 97° East 540 621 31,000  Level Cleveland Center
Sun 08:53:31 PM 41.6839 -79.7381 97° East 540 621 31,000  Level Cleveland Center
Sun 08:54:31 PM 41.6656 -79.5603 98° East 540 621 31,000  Level Cleveland Center
Sun 08:55:31 PM 41.6492 -79.3633 96° East 540 621 31,000  Level Cleveland Center
Sun 08:56:31 PM 41.6303 -79.1664 97° East 540 621 31,000  Level Cleveland Center
Sun 08:57:31 PM 41.6108 -78.9642 97° East 540 621 31,000  Level Cleveland Center
Sun 08:58:31 PM 41.5911 -78.7647 97° East 540 621 31,000  Level Cleveland Center
Sun 09:00:15 PM 41.5589 -78.4119 97° East 535 616 31,000  Level New York Center
Sun 09:01:15 PM 41.5400 -78.2158 97° East 530 610 31,000  Level New York Center
Sun 09:02:13 PM 41.5164 -78.0247 99° East 530 610 31,000  Level New York Center
Sun 09:03:14 PM 41.4928 -77.8308 99° East 530 610 31,000  Level New York Center
Sun 09:04:15 PM 41.4667 -77.6369 100° East 530 610 31,000  Level New York Center
Sun 09:05:13 PM 41.4378 -77.4458 101° East 530 610 31,000 -50 Level New York Center
Sun 09:06:14 PM 41.4089 -77.2575 101° East 530 610 30,900 -984 Descending New York Center
Sun 09:07:15 PM 41.3797 -77.0639 101° East 530 610 29,000 -1,869 Descending New York Center
Sun 09:08:16 PM 41.3503 -76.8650 101° East 535 616 27,100 -1,932 Descending New York Center
Sun 09:09:13 PM 41.3097 -76.6789 106° East 530 610 25,200 -1,932 Descending New York Center
Sun 09:10:14 PM 41.2619 -76.5064 110° East 517 595 23,300 -1,835 Descending New York Center
Sun 09:11:14 PM 41.2161 -76.3342 109° East 502 578 21,500 -1,664 Descending New York Center
Sun 09:12:13 PM 41.1697 -76.1650 110° East 492 566 20,000 -1,261 Descending New York Center
Sun 09:13:13 PM 41.1344 -76.0217 108° East 473 544 19,000 -694 Descending New York Center
Sun 09:14:14 PM 41.0858 -75.8472 110° East 460 529 18,600 -1,750 Descending New York Center
Sun 09:15:13 PM 41.0464 -75.6986 109° East 442 509 15,500 -2,350 Descending New York Center
Sun 09:16:14 PM 41.0064 -75.5553 110° East 424 488 13,900 -1,686 Descending New York Center
Sun 09:17:14 PM 40.9717 -75.4319 110° East 401 461 12,100 -1,537 Descending New York Center
Sun 09:18:15 PM 40.9347 -75.3086 112° Southeast 379 436 10,800 -1,300 Descending New York Center
Sun 09:19:14 PM 40.9022 -75.1828 109° East 330 380 9,500 -1,210 Descending New York Center
Sun 09:20:14 PM 40.8725 -75.0794 111° Southeast 309 356 8,400 -1,091 Descending New York Center
Sun 09:21:15 PM 40.8428 -74.9789 111° Southeast 298 343 7,300 -694 Descending New York Center
Sun 09:22:15 PM 40.8233 -74.8817 105° East 298 343 7,000 -151 Descending New York Center
Sun 09:23:14 PM 40.8481 -74.7678 74° East 291 335 7,000 -450 Level New York Center
Sun 09:24:15 PM 40.8700 -74.6786 72° East 291 335 6,100 -992 Descending New York Center
Sun 09:25:15 PM 40.9064 -74.5792 64° Northeast 279 321 5,000 -776 Descending New York Center
Sun 09:25:40 PM 40.9167 -74.5333 73° East 276 318 5,000  Level New York TRACON
Sun 09:26:34 PM 40.9500 -74.4667 56° Northeast 245 282 5,000  Level New York TRACON
Sun 09:27:34 PM 40.9833 -74.3833 62° Northeast 240 276 5,000  Level New York TRACON
Sun 09:28:34 PM 41.0167 -74.3000 62° Northeast 242 278 5,000  Level New York TRACON
Sun 09:29:34 PM 41.0333 -74.2167 75° East 244 281 5,000  Level New York TRACON
Sun 09:30:34 PM 41.0000 -74.1333 118° Southeast 258 297 5,000 -550 Level New York TRACON
Sun 09:31:34 PM 40.9667 -74.0667 123° Southeast 258 297 3,900 -1,053 Descending New York TRACON
Sun 09:32:28 PM 40.9000 -74.0667 180° South 236 272 3,000 -450 Descending New York TRACON
Sun 09:33:34 PM 40.8500 -74.0667 180° South 185 213 3,000  Level New York TRACON

Login

Don't have an account? Register now (free) for customized features, flight alerts, and more!